createdAt,value
2022-08-27T00:00:38.518Z,0.00
2022-08-27T00:01:38.531Z,0.00
2022-08-27T00:02:38.489Z,0.00
2022-08-27T00:03:38.480Z,0.00
2022-08-27T00:04:38.546Z,0.00
2022-08-27T00:05:38.453Z,0.00
2022-08-27T00:06:38.440Z,0.00
2022-08-27T00:07:38.425Z,0.00
2022-08-27T00:08:38.413Z,0.00
2022-08-27T00:09:38.394Z,0.00
2022-08-27T00:10:38.386Z,0.00
2022-08-27T00:11:38.371Z,0.00
2022-08-27T00:12:38.359Z,0.00
2022-08-27T00:13:38.344Z,0.00
2022-08-27T00:14:38.330Z,0.00
2022-08-27T00:15:38.318Z,0.00
2022-08-27T00:16:38.374Z,0.00
2022-08-27T00:17:38.290Z,0.00
2022-08-27T00:18:38.279Z,0.00
2022-08-27T00:19:38.263Z,0.00
2022-08-27T00:20:38.253Z,0.00
2022-08-27T00:21:38.232Z,0.00
2022-08-27T00:22:38.231Z,0.00
2022-08-27T00:23:38.207Z,0.00
2022-08-27T00:24:38.399Z,0.00
2022-08-27T00:25:39.206Z,0.00
2022-08-27T00:26:42.632Z,0.00
2022-08-27T00:27:38.153Z,0.00
2022-08-27T00:28:38.142Z,0.00
2022-08-27T00:29:38.133Z,0.00
2022-08-27T00:30:38.114Z,0.00
2022-08-27T00:31:38.150Z,0.00
2022-08-27T00:32:38.091Z,0.00
2022-08-27T00:33:38.073Z,0.00
2022-08-27T00:34:38.063Z,0.00
2022-08-27T00:35:38.049Z,0.00
2022-08-27T00:36:38.254Z,0.00
2022-08-27T00:37:38.025Z,0.00
2022-08-27T00:38:38.010Z,0.00
2022-08-27T00:39:37.991Z,0.00
2022-08-27T00:40:38.058Z,0.00
2022-08-27T00:41:37.967Z,0.00
2022-08-27T00:42:37.952Z,0.00
2022-08-27T00:43:37.945Z,0.00
2022-08-27T00:44:37.930Z,0.00
2022-08-27T00:45:37.976Z,0.00
2022-08-27T00:46:37.903Z,0.00
2022-08-27T00:47:37.885Z,0.00
2022-08-27T00:48:37.880Z,0.00
2022-08-27T00:49:37.862Z,0.00
2022-08-27T00:50:37.852Z,0.00
2022-08-27T00:51:37.837Z,0.00
2022-08-27T00:52:37.820Z,0.00
2022-08-27T00:53:37.811Z,0.00
2022-08-27T00:54:37.795Z,0.00
2022-08-27T00:55:37.783Z,0.00
2022-08-27T00:56:37.768Z,0.00
2022-08-27T00:57:37.748Z,0.00
2022-08-27T00:58:37.737Z,0.00
2022-08-27T00:59:37.721Z,0.00
2022-08-27T01:00:37.763Z,0.00
2022-08-27T01:01:37.695Z,0.00
2022-08-27T01:02:37.692Z,0.00
2022-08-27T01:03:37.672Z,0.00
2022-08-27T01:04:37.668Z,0.00
2022-08-27T01:05:37.642Z,0.00
2022-08-27T01:06:37.639Z,0.00
2022-08-27T01:07:37.618Z,0.00
2022-08-27T01:08:37.607Z,0.00
2022-08-27T01:09:37.590Z,0.00
2022-08-27T01:10:37.586Z,0.00
2022-08-27T01:11:37.563Z,0.00
2022-08-27T01:12:37.742Z,0.00
2022-08-27T01:13:42.136Z,0.00
2022-08-27T01:14:38.553Z,0.00
2022-08-27T01:15:37.510Z,0.00
2022-08-27T01:16:37.584Z,0.00
2022-08-27T01:17:37.483Z,0.00
2022-08-27T01:18:37.471Z,0.00
2022-08-27T01:19:37.462Z,0.00
2022-08-27T01:20:37.449Z,0.00
2022-08-27T01:21:37.436Z,0.00
2022-08-27T01:22:37.421Z,0.00
2022-08-27T01:23:37.406Z,0.00
2022-08-27T01:24:37.395Z,0.00
2022-08-27T01:25:37.377Z,0.00
2022-08-27T01:26:37.365Z,0.00
2022-08-27T01:27:37.347Z,0.00
2022-08-27T01:28:37.792Z,0.00
2022-08-27T01:29:37.320Z,0.00
2022-08-27T01:30:37.311Z,0.00
2022-08-27T01:31:37.323Z,0.00
2022-08-27T01:32:37.286Z,0.00
2022-08-27T01:33:37.270Z,0.00
2022-08-27T01:34:37.256Z,0.00
2022-08-27T01:35:38.933Z,0.00
2022-08-27T01:36:37.234Z,0.00
2022-08-27T01:37:37.213Z,0.00
2022-08-27T01:38:37.210Z,0.00
2022-08-27T01:39:37.189Z,0.00
2022-08-27T01:40:37.248Z,0.00
2022-08-27T01:41:37.157Z,0.00
2022-08-27T01:42:37.153Z,0.00
2022-08-27T01:43:37.137Z,0.00
2022-08-27T01:44:37.126Z,0.00
2022-08-27T01:45:37.115Z,0.00
2022-08-27T01:46:37.167Z,0.00
2022-08-27T01:47:37.081Z,0.00
2022-08-27T01:48:37.071Z,0.00
2022-08-27T01:49:37.054Z,0.00
2022-08-27T01:50:37.040Z,0.00
2022-08-27T01:51:37.028Z,0.00
2022-08-27T01:52:37.017Z,0.00
2022-08-27T01:53:36.996Z,0.00
2022-08-27T01:54:36.997Z,0.00
2022-08-27T01:55:36.973Z,0.00
2022-08-27T01:56:36.957Z,0.00
2022-08-27T01:57:36.946Z,0.00
2022-08-27T01:58:36.932Z,0.00
2022-08-27T01:59:39.786Z,0.00
2022-08-27T02:00:36.968Z,0.00
2022-08-27T02:01:36.961Z,0.00
2022-08-27T02:02:36.885Z,0.00
2022-08-27T02:03:36.861Z,0.00
2022-08-27T02:04:36.861Z,0.00
2022-08-27T02:05:39.333Z,0.00
2022-08-27T02:06:37.850Z,0.00
2022-08-27T02:07:36.806Z,0.00
2022-08-27T02:08:36.799Z,0.00
2022-08-27T02:09:36.779Z,0.00
2022-08-27T02:10:36.777Z,0.00
2022-08-27T02:11:44.849Z,0.00
2022-08-27T02:12:37.774Z,0.00
2022-08-27T02:13:36.731Z,0.00
2022-08-27T02:14:36.720Z,0.00
2022-08-27T02:15:36.702Z,0.00
2022-08-27T02:16:36.737Z,0.00
2022-08-27T02:17:36.678Z,0.00
2022-08-27T02:18:36.656Z,0.00
2022-08-27T02:19:36.657Z,0.00
2022-08-27T02:20:36.642Z,0.00
2022-08-27T02:21:36.626Z,0.00
2022-08-27T02:22:36.607Z,0.00
2022-08-27T02:23:36.592Z,0.00
2022-08-27T02:24:36.581Z,0.00
2022-08-27T02:25:36.570Z,0.00
2022-08-27T02:26:36.550Z,0.00
2022-08-27T02:27:36.542Z,0.00
2022-08-27T02:28:36.525Z,0.00
2022-08-27T02:29:36.514Z,0.00
2022-08-27T02:30:36.501Z,0.00
2022-08-27T02:31:36.540Z,0.00
2022-08-27T02:32:36.475Z,0.00
2022-08-27T02:33:36.463Z,0.00
2022-08-27T02:34:36.451Z,0.00
2022-08-27T02:35:36.439Z,0.00
2022-08-27T02:36:36.420Z,0.00
2022-08-27T02:37:36.419Z,0.00
2022-08-27T02:38:36.392Z,0.00
2022-08-27T02:39:36.381Z,0.00
2022-08-27T02:40:36.393Z,0.00
2022-08-27T02:41:36.356Z,0.00
2022-08-27T02:42:36.333Z,0.00
2022-08-27T02:43:36.324Z,0.00
2022-08-27T02:44:36.304Z,0.00
2022-08-27T02:45:36.298Z,0.00
2022-08-27T02:46:36.403Z,0.00
2022-08-27T02:47:36.274Z,0.00
2022-08-27T02:48:36.258Z,0.00
2022-08-27T02:49:36.245Z,0.00
2022-08-27T02:50:36.235Z,0.00
2022-08-27T02:51:36.214Z,0.00
2022-08-27T02:52:36.206Z,0.00
2022-08-27T02:53:36.189Z,0.00
2022-08-27T02:54:36.171Z,0.00
2022-08-27T02:55:36.164Z,0.00
2022-08-27T02:56:36.147Z,0.00
2022-08-27T02:57:36.393Z,0.00
2022-08-27T02:58:36.120Z,0.00
2022-08-27T02:59:36.112Z,0.00
2022-08-27T03:00:36.097Z,0.00
2022-08-27T03:01:36.122Z,0.00
2022-08-27T03:02:36.195Z,0.00
2022-08-27T03:03:36.055Z,0.00
2022-08-27T03:04:36.037Z,0.00
2022-08-27T03:05:36.032Z,0.00
2022-08-27T03:06:36.009Z,0.00
2022-08-27T03:07:36.007Z,0.00
2022-08-27T03:08:52.030Z,0.00
2022-08-27T03:09:36.996Z,0.00
2022-08-27T03:10:35.955Z,0.00
2022-08-27T03:11:35.947Z,0.00
2022-08-27T03:12:35.933Z,0.00
2022-08-27T03:13:35.930Z,0.00
2022-08-27T03:14:35.907Z,0.00
2022-08-27T03:15:35.897Z,0.00
2022-08-27T03:16:35.880Z,0.00
2022-08-27T03:17:35.870Z,0.00
2022-08-27T03:18:35.853Z,0.00
2022-08-27T03:19:35.836Z,0.00
2022-08-27T03:20:35.820Z,0.00
2022-08-27T03:21:35.812Z,0.00
2022-08-27T03:22:35.798Z,0.00
2022-08-27T03:23:35.785Z,0.00
2022-08-27T03:24:35.770Z,0.00
2022-08-27T03:25:35.760Z,0.00
2022-08-27T03:26:35.742Z,0.00
2022-08-27T03:27:35.730Z,0.00
2022-08-27T03:28:35.714Z,0.00
2022-08-27T03:29:35.704Z,0.00
2022-08-27T03:30:35.688Z,0.00
2022-08-27T03:31:35.686Z,0.00
2022-08-27T03:32:35.661Z,0.00
2022-08-27T03:33:35.646Z,0.00
2022-08-27T03:34:35.635Z,0.00
2022-08-27T03:35:35.630Z,0.00
2022-08-27T03:36:35.609Z,0.00
2022-08-27T03:37:35.601Z,0.00
2022-08-27T03:38:35.585Z,0.00
2022-08-27T03:39:35.574Z,0.00
2022-08-27T03:40:35.592Z,0.00
2022-08-27T03:41:45.537Z,0.00
2022-08-27T03:42:36.558Z,0.00
2022-08-27T03:43:35.519Z,0.00
2022-08-27T03:44:35.498Z,0.00
2022-08-27T03:46:01.046Z,0.00
2022-08-27T03:46:36.644Z,0.00
2022-08-27T03:47:35.459Z,0.00
2022-08-27T03:48:35.442Z,0.00
2022-08-27T03:49:35.433Z,0.00
2022-08-27T03:50:35.414Z,0.00
2022-08-27T03:51:35.409Z,0.00
2022-08-27T03:52:35.396Z,0.00
2022-08-27T03:53:35.384Z,0.00
2022-08-27T03:54:35.368Z,0.00
2022-08-27T03:55:35.355Z,0.00
2022-08-27T03:56:35.348Z,0.00
2022-08-27T03:57:35.328Z,0.00
2022-08-27T03:58:35.320Z,0.00
2022-08-27T03:59:35.295Z,0.00
2022-08-27T04:00:35.289Z,0.00
2022-08-27T04:01:35.329Z,0.00
2022-08-27T04:02:35.302Z,0.00
2022-08-27T04:03:35.242Z,0.00
2022-08-27T04:04:35.233Z,0.00
2022-08-27T04:05:35.213Z,0.00
2022-08-27T04:06:35.205Z,0.00
2022-08-27T04:07:35.190Z,0.00
2022-08-27T04:08:35.180Z,0.00
2022-08-27T04:09:35.164Z,0.00
2022-08-27T04:10:35.183Z,0.00
2022-08-27T04:11:35.139Z,4.00
2022-08-27T04:12:35.130Z,4.00
2022-08-27T04:13:35.116Z,0.00
2022-08-27T04:14:35.105Z,0.00
2022-08-27T04:15:35.083Z,4.00
2022-08-27T04:16:35.091Z,4.00
2022-08-27T04:17:35.052Z,4.00
2022-08-27T04:18:35.044Z,4.00
2022-08-27T04:19:35.024Z,8.00
2022-08-27T04:20:36.126Z,4.00
2022-08-27T04:21:35.002Z,4.00
2022-08-27T04:22:34.991Z,8.00
2022-08-27T04:23:34.976Z,8.00
2022-08-27T04:24:34.965Z,12.00
2022-08-27T04:25:34.953Z,12.00
2022-08-27T04:26:34.948Z,16.00
2022-08-27T04:27:34.919Z,20.00
2022-08-27T04:28:38.425Z,24.00
2022-08-27T04:29:34.890Z,28.00
2022-08-27T04:30:34.888Z,32.00
2022-08-27T04:31:34.901Z,40.00
2022-08-27T04:32:34.860Z,44.00
2022-08-27T04:33:34.846Z,56.00
2022-08-27T04:34:34.831Z,68.00
2022-08-27T04:35:34.815Z,84.00
2022-08-27T04:36:34.807Z,100.00
2022-08-27T04:37:34.794Z,112.00
2022-08-27T04:38:34.782Z,124.00
2022-08-27T04:39:34.760Z,136.00
2022-08-27T04:40:34.781Z,156.00
2022-08-27T04:41:34.735Z,168.00
2022-08-27T04:42:34.723Z,176.00
2022-08-27T04:43:34.708Z,180.00
2022-08-27T04:44:34.693Z,184.00
2022-08-27T04:45:34.675Z,200.00
2022-08-27T04:46:34.730Z,216.00
2022-08-27T04:47:34.658Z,224.00
2022-08-27T04:48:34.647Z,224.00
2022-08-27T04:49:34.626Z,228.00
2022-08-27T04:50:34.619Z,228.00
2022-08-27T04:51:34.601Z,232.00
2022-08-27T04:52:34.591Z,240.00
2022-08-27T04:53:35.596Z,248.00
2022-08-27T04:54:34.568Z,268.00
2022-08-27T04:55:34.542Z,288.00
2022-08-27T04:56:34.530Z,320.00
2022-08-27T04:57:34.515Z,356.00
2022-08-27T04:58:34.504Z,404.00
2022-08-27T04:59:34.496Z,452.00
2022-08-27T05:00:34.483Z,496.00
2022-08-27T05:01:34.509Z,540.00
2022-08-27T05:02:34.455Z,588.00
2022-08-27T05:03:34.437Z,632.00
2022-08-27T05:04:34.427Z,656.00
2022-08-27T05:05:34.493Z,660.00
2022-08-27T05:06:34.399Z,660.00
2022-08-27T05:07:34.383Z,680.00
2022-08-27T05:08:34.381Z,740.00
2022-08-27T05:09:34.359Z,824.00
2022-08-27T05:10:34.347Z,944.00
2022-08-27T05:11:34.339Z,1076.00
2022-08-27T05:12:34.319Z,1180.00
2022-08-27T05:13:34.329Z,1264.00
2022-08-27T05:14:34.300Z,1336.00
2022-08-27T05:15:34.342Z,1364.00
2022-08-27T05:16:34.272Z,1352.00
2022-08-27T05:17:34.250Z,1312.00
2022-08-27T05:18:42.274Z,1272.00
2022-08-27T05:19:35.248Z,1256.00
2022-08-27T05:20:34.208Z,1260.00
2022-08-27T05:21:34.193Z,1260.00
2022-08-27T05:22:34.189Z,1252.00
2022-08-27T05:23:34.172Z,1220.00
2022-08-27T05:24:34.154Z,1180.00
2022-08-27T05:25:34.138Z,1132.00
2022-08-27T05:26:34.131Z,1096.00
2022-08-27T05:27:34.116Z,1076.00
2022-08-27T05:28:34.109Z,1064.00
2022-08-27T05:29:34.093Z,1056.00
2022-08-27T05:30:34.083Z,1048.00
2022-08-27T05:31:34.145Z,1056.00
2022-08-27T05:32:34.048Z,1080.00
2022-08-27T05:33:34.035Z,1112.00
2022-08-27T05:34:34.021Z,1136.00
2022-08-27T05:35:34.011Z,1152.00
2022-08-27T05:36:33.995Z,1192.00
2022-08-27T05:37:33.983Z,1232.00
2022-08-27T05:38:33.974Z,1264.00
2022-08-27T05:39:33.954Z,1284.00
2022-08-27T05:40:34.070Z,1296.00
2022-08-27T05:41:34.521Z,1312.00
2022-08-27T05:42:33.916Z,1328.00
2022-08-27T05:43:33.904Z,1324.00
2022-08-27T05:44:42.047Z,1312.00
2022-08-27T05:45:34.897Z,1332.00
2022-08-27T05:46:33.966Z,1364.00
2022-08-27T05:47:33.842Z,1372.00
2022-08-27T05:48:33.832Z,1404.00
2022-08-27T05:49:33.815Z,1504.00
2022-08-27T05:50:33.803Z,1680.00
2022-08-27T05:51:33.792Z,1788.00
2022-08-27T05:52:33.782Z,1824.00
2022-08-27T05:53:33.764Z,1792.00
2022-08-27T05:54:33.755Z,1736.00
2022-08-27T05:55:33.739Z,1720.00
2022-08-27T05:56:33.733Z,1740.00
2022-08-27T05:57:33.713Z,1772.00
2022-08-27T05:58:33.705Z,1764.00
2022-08-27T05:59:34.575Z,1792.00
2022-08-27T06:00:33.676Z,1884.00
2022-08-27T06:01:33.655Z,2028.00
2022-08-27T06:02:33.697Z,2092.00
2022-08-27T06:03:33.629Z,2068.00
2022-08-27T06:04:33.634Z,2056.00
2022-08-27T06:05:33.680Z,2096.00
2022-08-27T06:06:33.601Z,2204.00
2022-08-27T06:07:33.579Z,2284.00
2022-08-27T06:08:33.571Z,2228.00
2022-08-27T06:09:33.544Z,2176.00
2022-08-27T06:10:33.541Z,2168.00
2022-08-27T06:11:33.529Z,2232.00
2022-08-27T06:12:33.516Z,2288.00
2022-08-27T06:13:33.501Z,2344.00
2022-08-27T06:14:33.485Z,2372.00
2022-08-27T06:15:33.498Z,2384.00
2022-08-27T06:16:33.458Z,2420.00
2022-08-27T06:17:33.439Z,2492.00
2022-08-27T06:18:33.426Z,2576.00
2022-08-27T06:19:33.411Z,2680.00
2022-08-27T06:20:33.403Z,2780.00
2022-08-27T06:21:33.384Z,2868.00
2022-08-27T06:22:33.374Z,2936.00
2022-08-27T06:23:33.361Z,2972.00
2022-08-27T06:24:33.352Z,2972.00
2022-08-27T06:25:33.334Z,3024.00
2022-08-27T06:26:33.329Z,3100.00
2022-08-27T06:27:33.304Z,3148.00
2022-08-27T06:28:33.296Z,3180.00
2022-08-27T06:29:33.278Z,3228.00
2022-08-27T06:30:33.265Z,3252.00
2022-08-27T06:31:33.342Z,3292.00
2022-08-27T06:32:33.246Z,3288.00
2022-08-27T06:33:33.228Z,3276.00
2022-08-27T06:34:33.218Z,3248.00
2022-08-27T06:35:34.114Z,3212.00
2022-08-27T06:36:33.187Z,3148.00
2022-08-27T06:37:33.170Z,3096.00
2022-08-27T06:38:33.160Z,3108.00
2022-08-27T06:39:33.154Z,3236.00
2022-08-27T06:40:33.234Z,3468.00
2022-08-27T06:41:33.127Z,3708.00
2022-08-27T06:42:33.114Z,3940.00
2022-08-27T06:43:33.095Z,4084.00
2022-08-27T06:44:33.083Z,4352.00
2022-08-27T06:45:33.064Z,4312.00
2022-08-27T06:46:33.202Z,4348.00
2022-08-27T06:47:33.042Z,4384.00
2022-08-27T06:48:33.034Z,4404.00
2022-08-27T06:49:33.017Z,4412.00
2022-08-27T06:50:33.006Z,4564.00
2022-08-27T06:51:32.988Z,4552.00
2022-08-27T06:52:32.984Z,4564.00
2022-08-27T06:53:32.967Z,4620.00
2022-08-27T06:54:32.955Z,4672.00
2022-08-27T06:55:36.762Z,4716.00
2022-08-27T06:56:32.924Z,4736.00
2022-08-27T06:57:32.912Z,4652.00
2022-08-27T06:58:32.898Z,4532.00
2022-08-27T06:59:32.884Z,4404.00
2022-08-27T07:00:32.872Z,4352.00
2022-08-27T07:01:32.945Z,4392.00
2022-08-27T07:02:32.896Z,4528.00
2022-08-27T07:03:32.832Z,4668.00
2022-08-27T07:04:33.003Z,4792.00
2022-08-27T07:05:32.804Z,4960.00
2022-08-27T07:06:32.799Z,5124.00
2022-08-27T07:07:38.154Z,5380.00
2022-08-27T07:08:33.789Z,5488.00
2022-08-27T07:09:32.833Z,5792.00
2022-08-27T07:10:32.740Z,6044.00
2022-08-27T07:11:32.721Z,6400.00
2022-08-27T07:12:32.710Z,6588.00
2022-08-27T07:13:32.691Z,6944.00
2022-08-27T07:14:37.142Z,7160.00
2022-08-27T07:15:32.686Z,7080.00
2022-08-27T07:16:32.664Z,7228.00
2022-08-27T07:17:32.642Z,7500.00
2022-08-27T07:18:32.629Z,7916.00
2022-08-27T07:19:32.615Z,8296.00
2022-08-27T07:20:32.606Z,8468.00
2022-08-27T07:21:32.593Z,8456.00
2022-08-27T07:22:32.580Z,8652.00
2022-08-27T07:23:32.558Z,8752.00
2022-08-27T07:24:32.546Z,8720.00
2022-08-27T07:25:32.531Z,8520.00
2022-08-27T07:26:32.527Z,8268.00
2022-08-27T07:27:32.507Z,8388.00
2022-08-27T07:28:32.499Z,8380.00
2022-08-27T07:29:32.500Z,8208.00
2022-08-27T07:30:32.504Z,8352.00
2022-08-27T07:31:32.452Z,8720.00
2022-08-27T07:32:32.441Z,9480.00
2022-08-27T07:33:32.424Z,10160.00
2022-08-27T07:34:32.415Z,11636.00
2022-08-27T07:35:32.404Z,12924.00
2022-08-27T07:36:32.399Z,12228.00
2022-08-27T07:37:35.373Z,11912.00
2022-08-27T07:38:32.370Z,11412.00
2022-08-27T07:39:32.346Z,14528.00
2022-08-27T07:40:32.390Z,12588.00
2022-08-27T07:41:32.368Z,12256.00
2022-08-27T07:42:32.308Z,11456.00
2022-08-27T07:43:32.299Z,10284.00
2022-08-27T07:44:34.452Z,10060.00
2022-08-27T07:45:32.270Z,9472.00
2022-08-27T07:46:33.041Z,9208.00
2022-08-27T07:47:32.246Z,9444.00
2022-08-27T07:48:32.237Z,9588.00
2022-08-27T07:49:32.224Z,9384.00
2022-08-27T07:50:32.216Z,9552.00
2022-08-27T07:51:32.197Z,9720.00
2022-08-27T07:52:32.179Z,9296.00
2022-08-27T07:53:32.163Z,8844.00
2022-08-27T07:54:32.152Z,8920.00
2022-08-27T07:55:32.136Z,9144.00
2022-08-27T07:56:32.132Z,8804.00
2022-08-27T07:57:32.114Z,8500.00
2022-08-27T07:58:32.101Z,8636.00
2022-08-27T07:59:32.090Z,8916.00
2022-08-27T08:00:32.086Z,8908.00
2022-08-27T08:01:32.125Z,8792.00
2022-08-27T08:02:32.111Z,8148.00
2022-08-27T08:03:32.039Z,7280.00
2022-08-27T08:04:32.029Z,6688.00
2022-08-27T08:05:32.018Z,6084.00
2022-08-27T08:06:32.003Z,5400.00
2022-08-27T08:07:31.984Z,5100.00
2022-08-27T08:08:31.973Z,5132.00
2022-08-27T08:09:31.957Z,5412.00
2022-08-27T08:10:35.386Z,5684.00
2022-08-27T08:11:31.935Z,6056.00
2022-08-27T08:12:31.922Z,6644.00
2022-08-27T08:13:31.910Z,7212.00
2022-08-27T08:14:31.893Z,7792.00
2022-08-27T08:15:31.885Z,8140.00
2022-08-27T08:16:32.002Z,8560.00
2022-08-27T08:17:31.860Z,8988.00
2022-08-27T08:18:31.848Z,9524.00
2022-08-27T08:19:32.149Z,10112.00
2022-08-27T08:20:56.729Z,10276.00
2022-08-27T08:21:32.831Z,10072.00
2022-08-27T08:22:31.797Z,9412.00
2022-08-27T08:23:31.778Z,8732.00
2022-08-27T08:24:31.760Z,8184.00
2022-08-27T08:25:35.536Z,7476.00
2022-08-27T08:26:32.757Z,6668.00
2022-08-27T08:27:31.727Z,5936.00
2022-08-27T08:28:31.707Z,5316.00
2022-08-27T08:29:31.697Z,4772.00
2022-08-27T08:30:35.258Z,4328.00
2022-08-27T08:31:31.677Z,4100.00
2022-08-27T08:32:31.658Z,3992.00
2022-08-27T08:33:31.694Z,3824.00
2022-08-27T08:34:31.635Z,3648.00
2022-08-27T08:35:35.065Z,3388.00
2022-08-27T08:36:32.633Z,3060.00
2022-08-27T08:37:31.597Z,2720.00
2022-08-27T08:38:31.586Z,2444.00
2022-08-27T08:39:31.567Z,2284.00
2022-08-27T08:40:31.598Z,2136.00
2022-08-27T08:41:31.539Z,1956.00
2022-08-27T08:42:31.520Z,1860.00
2022-08-27T08:43:31.513Z,1888.00
2022-08-27T08:44:31.507Z,1912.00
2022-08-27T08:45:31.488Z,1880.00
2022-08-27T08:46:31.544Z,1924.00
2022-08-27T08:47:31.457Z,2016.00
2022-08-27T08:48:31.446Z,2220.00
2022-08-27T08:49:31.435Z,2392.00
2022-08-27T08:50:31.421Z,2612.00
2022-08-27T08:51:31.409Z,2836.00
2022-08-27T08:52:32.044Z,2916.00
2022-08-27T08:53:31.378Z,2752.00
2022-08-27T08:54:31.362Z,2880.00
2022-08-27T08:55:31.356Z,2896.00
2022-08-27T08:56:31.342Z,2928.00
2022-08-27T08:57:31.331Z,3312.00
2022-08-27T08:58:31.318Z,4016.00
2022-08-27T08:59:31.305Z,4668.00
2022-08-27T09:00:31.289Z,5568.00
2022-08-27T09:01:31.363Z,5784.00
2022-08-27T09:02:31.267Z,5344.00
2022-08-27T09:03:31.284Z,5232.00
2022-08-27T09:04:31.234Z,5128.00
2022-08-27T09:05:31.223Z,4736.00
2022-08-27T09:06:31.206Z,4472.00
2022-08-27T09:07:31.192Z,4440.00
2022-08-27T09:08:36.484Z,4272.00
2022-08-27T09:09:32.187Z,3996.00
2022-08-27T09:10:31.151Z,3712.00
2022-08-27T09:11:31.148Z,3400.00
2022-08-27T09:12:31.128Z,3224.00
2022-08-27T09:13:31.118Z,3080.00
2022-08-27T09:14:31.101Z,3012.00
2022-08-27T09:15:31.094Z,2960.00
2022-08-27T09:16:31.197Z,2900.00
2022-08-27T09:17:31.062Z,2864.00
2022-08-27T09:18:31.044Z,2952.00
2022-08-27T09:19:31.042Z,3284.00
2022-08-27T09:20:31.021Z,3676.00
2022-08-27T09:21:31.019Z,4524.00
2022-08-27T09:22:30.993Z,5276.00
2022-08-27T09:23:30.984Z,5492.00
2022-08-27T09:24:30.972Z,5468.00
2022-08-27T09:25:30.957Z,5488.00
2022-08-27T09:26:30.947Z,5660.00
2022-08-27T09:27:30.930Z,5640.00
2022-08-27T09:28:30.914Z,5708.00
2022-08-27T09:29:30.900Z,5916.00
2022-08-27T09:30:31.169Z,6204.00
2022-08-27T09:31:30.877Z,6504.00
2022-08-27T09:32:30.859Z,6744.00
2022-08-27T09:33:44.628Z,7056.00
2022-08-27T09:34:31.857Z,7308.00
2022-08-27T09:35:30.827Z,7444.00
2022-08-27T09:36:30.809Z,7672.00
2022-08-27T09:37:34.689Z,8004.00
2022-08-27T09:38:30.780Z,8168.00
2022-08-27T09:39:30.770Z,8228.00
2022-08-27T09:40:30.831Z,8316.00
2022-08-27T09:41:30.745Z,8056.00
2022-08-27T09:42:30.730Z,7996.00
2022-08-27T09:43:30.712Z,8096.00
2022-08-27T09:44:30.700Z,8048.00
2022-08-27T09:45:30.744Z,8092.00
2022-08-27T09:46:30.671Z,8108.00
2022-08-27T09:47:30.668Z,8368.00
2022-08-27T09:48:30.649Z,8760.00
2022-08-27T09:49:30.637Z,8988.00
2022-08-27T09:50:30.623Z,9048.00
2022-08-27T09:51:30.604Z,8904.00
2022-08-27T09:52:30.588Z,8352.00
2022-08-27T09:53:30.584Z,7788.00
2022-08-27T09:54:30.564Z,7260.00
2022-08-27T09:55:30.562Z,7000.00
2022-08-27T09:56:30.533Z,7092.00
2022-08-27T09:57:30.748Z,7000.00
2022-08-27T09:58:30.511Z,6404.00
2022-08-27T09:59:30.504Z,5920.00
2022-08-27T10:00:30.484Z,5476.00
2022-08-27T10:01:30.549Z,4796.00
2022-08-27T10:02:30.459Z,3792.00
2022-08-27T10:03:33.416Z,2796.00
2022-08-27T10:04:30.531Z,2012.00
2022-08-27T10:05:30.420Z,1504.00
2022-08-27T10:06:30.413Z,1144.00
2022-08-27T10:07:30.394Z,900.00
2022-08-27T10:08:30.374Z,748.00
2022-08-27T10:09:30.363Z,680.00
2022-08-27T10:10:30.362Z,576.00
2022-08-27T10:11:30.343Z,488.00
2022-08-27T10:12:30.319Z,444.00
2022-08-27T10:13:30.309Z,432.00
2022-08-27T10:14:30.292Z,424.00
2022-08-27T10:15:30.286Z,436.00
2022-08-27T10:16:31.385Z,516.00
2022-08-27T10:17:30.258Z,604.00
2022-08-27T10:18:30.244Z,656.00
2022-08-27T10:19:30.234Z,880.00
2022-08-27T10:20:30.946Z,1256.00
2022-08-27T10:21:30.205Z,1568.00
2022-08-27T10:22:30.188Z,1664.00
2022-08-27T10:23:30.177Z,1696.00
2022-08-27T10:24:30.154Z,1760.00
2022-08-27T10:25:30.150Z,1636.00
2022-08-27T10:26:33.680Z,1384.00
2022-08-27T10:27:30.122Z,1292.00
2022-08-27T10:28:30.109Z,1216.00
2022-08-27T10:29:30.094Z,1180.00
2022-08-27T10:30:30.078Z,1204.00
2022-08-27T10:31:30.137Z,1324.00
2022-08-27T10:32:30.051Z,1604.00
2022-08-27T10:33:30.042Z,1880.00
2022-08-27T10:34:30.020Z,1892.00
2022-08-27T10:35:30.010Z,1724.00
2022-08-27T10:36:29.993Z,1452.00
2022-08-27T10:37:36.788Z,1168.00
2022-08-27T10:38:31.001Z,916.00
2022-08-27T10:39:29.966Z,708.00
2022-08-27T10:40:30.000Z,608.00
2022-08-27T10:41:29.939Z,664.00
2022-08-27T10:42:29.919Z,852.00
2022-08-27T10:43:29.908Z,1116.00
2022-08-27T10:44:29.888Z,1312.00
2022-08-27T10:45:30.989Z,1544.00
2022-08-27T10:46:29.898Z,1860.00
2022-08-27T10:47:29.860Z,2012.00
2022-08-27T10:48:29.844Z,2232.00
2022-08-27T10:49:29.832Z,2596.00
2022-08-27T10:50:29.814Z,2908.00
2022-08-27T10:51:29.801Z,3056.00
2022-08-27T10:52:29.784Z,3236.00
2022-08-27T10:53:29.772Z,3272.00
2022-08-27T10:54:29.761Z,3188.00
2022-08-27T10:55:29.753Z,2968.00
2022-08-27T10:56:29.733Z,2860.00
2022-08-27T10:57:51.716Z,2844.00
2022-08-27T10:58:30.736Z,2640.00
2022-08-27T10:59:29.695Z,2316.00
2022-08-27T11:00:29.681Z,2104.00
2022-08-27T11:01:29.766Z,1828.00
2022-08-27T11:02:29.731Z,1852.00
2022-08-27T11:03:32.116Z,1612.00
2022-08-27T11:04:29.623Z,1292.00
2022-08-27T11:05:29.616Z,1112.00
2022-08-27T11:06:29.637Z,900.00
2022-08-27T11:07:29.589Z,712.00
2022-08-27T11:08:29.572Z,636.00
2022-08-27T11:09:29.560Z,652.00
2022-08-27T11:10:29.544Z,788.00
2022-08-27T11:12:10.463Z,1036.00
2022-08-27T11:12:30.540Z,1360.00
2022-08-27T11:13:29.514Z,1492.00
2022-08-27T11:14:29.496Z,1412.00
2022-08-27T11:15:29.486Z,1660.00
2022-08-27T11:16:29.545Z,1764.00
2022-08-27T11:17:32.138Z,1792.00
2022-08-27T11:18:29.438Z,1468.00
2022-08-27T11:19:29.427Z,1104.00
2022-08-27T11:20:29.408Z,880.00
2022-08-27T11:21:29.401Z,824.00
2022-08-27T11:22:29.389Z,780.00
2022-08-27T11:23:29.373Z,792.00
2022-08-27T11:24:34.376Z,948.00
2022-08-27T11:25:29.348Z,1072.00
2022-08-27T11:26:29.332Z,1288.00
2022-08-27T11:27:29.318Z,1380.00
2022-08-27T11:28:30.035Z,1448.00
2022-08-27T11:29:29.289Z,1592.00
2022-08-27T11:30:29.276Z,1632.00
2022-08-27T11:31:29.326Z,1660.00
2022-08-27T11:32:29.256Z,1860.00
2022-08-27T11:33:29.240Z,2060.00
2022-08-27T11:34:29.224Z,2176.00
2022-08-27T11:35:29.213Z,2216.00
2022-08-27T11:36:29.193Z,2280.00
2022-08-27T11:37:29.187Z,2304.00
2022-08-27T11:38:29.168Z,2304.00
2022-08-27T11:39:29.156Z,2284.00
2022-08-27T11:40:29.230Z,2424.00
2022-08-27T11:41:29.130Z,2496.00
2022-08-27T11:42:29.116Z,2544.00
2022-08-27T11:43:29.117Z,2584.00
2022-08-27T11:44:29.089Z,2632.00
2022-08-27T11:45:29.084Z,2676.00
2022-08-27T11:46:29.166Z,2720.00
2022-08-27T11:47:29.050Z,2728.00
2022-08-27T11:48:29.032Z,2788.00
2022-08-27T11:49:29.019Z,2880.00
2022-08-27T11:50:29.007Z,2944.00
2022-08-27T11:51:29.000Z,3012.00
2022-08-27T11:52:29.421Z,3064.00
2022-08-27T11:53:28.978Z,3108.00
2022-08-27T11:54:28.956Z,3144.00
2022-08-27T11:55:28.943Z,3184.00
2022-08-27T11:56:28.931Z,3216.00
2022-08-27T11:57:28.921Z,3248.00
2022-08-27T11:58:28.905Z,3308.00
2022-08-27T11:59:28.886Z,3360.00
2022-08-27T12:00:28.868Z,3396.00
2022-08-27T12:01:28.860Z,3472.00
2022-08-27T12:02:28.848Z,3584.00
2022-08-27T12:03:28.874Z,3660.00
2022-08-27T12:04:28.851Z,3812.00
2022-08-27T12:05:28.806Z,3904.00
2022-08-27T12:06:28.792Z,4052.00
2022-08-27T12:07:28.780Z,4240.00
2022-08-27T12:08:28.765Z,4388.00
2022-08-27T12:09:28.754Z,4488.00
2022-08-27T12:10:28.740Z,4652.00
2022-08-27T12:11:28.731Z,4784.00
2022-08-27T12:12:28.720Z,4924.00
2022-08-27T12:13:28.708Z,5036.00
2022-08-27T12:14:28.689Z,5164.00
2022-08-27T12:15:34.477Z,5264.00
2022-08-27T12:16:29.910Z,5388.00
2022-08-27T12:17:28.643Z,5460.00
2022-08-27T12:18:28.633Z,5472.00
2022-08-27T12:19:28.618Z,5544.00
2022-08-27T12:20:28.601Z,5632.00
2022-08-27T12:21:28.595Z,5560.00
2022-08-27T12:22:28.572Z,5744.00
2022-08-27T12:23:28.566Z,5640.00
2022-08-27T12:24:28.550Z,5636.00
2022-08-27T12:25:28.542Z,5684.00
2022-08-27T12:26:28.523Z,5632.00
2022-08-27T12:27:28.520Z,5584.00
2022-08-27T12:28:28.498Z,5592.00
2022-08-27T12:29:28.485Z,5664.00
2022-08-27T12:30:28.473Z,5640.00
2022-08-27T12:31:28.489Z,5632.00